»·PEaware :: N327CT KREI-KSAN

N327CT :: KREI-KSAN

FLIGHT INFORMATION

Flight Status: Arrived
Operator: Privately registered:
United States
More flights under this callsign
Pilot: Ben H. (9170)
Aircraft: CESSNA 207 TURBO STATIONAIR
(C207)
More flights by this aircraft type
Origin: KREI Redlands Mun
United States
Destination: KSAN San Diego Intl-Lindbergh
United States
More flights between these airports :: More routes between these airports
Route: +PDZ V186 HAILE V66 MZB
File this flight plan on PilotEdge
Remarks:
Altitude:
(Current/Filed)
9,000ft
Speed:
(Current/Filed)
120kts
Departed: 11-Jan-19 07:10 PM
Arrived: 11-Jan-19 08:13 PM
Distance/Time
Traveled:
81nm/1:02
Distance/Time
To Go:
Arrived

Flight Plot

Page will automatically refresh every two minutes.


Map Options




Map Legend


Flown Route
Filed Route
Departure Airport
Arrival Airport
Navaid (VOR, NDB)
Fix

Horizontal Profiles

Position Reports

Time Latitude Longitude Heading Altitude Ground
Speed
11-Jan-19 19:00 34.084609 -117.140373 267 1537ft 0kts
11-Jan-19 19:01 34.084609 -117.140373 267 1537ft 0kts
11-Jan-19 19:02 34.084609 -117.140373 267 1537ft 0kts
11-Jan-19 19:03 34.084813 -117.140332 63 1536ft 4kts
11-Jan-19 19:04 34.084793 -117.139087 298 1536ft 0kts
11-Jan-19 19:05 34.084793 -117.139087 298 1536ft 0kts
11-Jan-19 19:06 34.084793 -117.139087 298 1536ft 0kts
11-Jan-19 19:07 34.084885 -117.139100 355 1536ft 0kts
11-Jan-19 19:08 34.085291 -117.140262 269 1536ft 31kts
11-Jan-19 19:09 34.079395 -117.165084 230 2132ft 85kts
11-Jan-19 19:10 34.065801 -117.190867 240 2634ft 101kts
11-Jan-19 19:11 34.049913 -117.219136 249 3109ft 107kts
11-Jan-19 19:12 34.039287 -117.251501 242 3786ft 101kts
11-Jan-19 19:13 34.026770 -117.280899 240 4548ft 91kts
11-Jan-19 19:14 34.016056 -117.305336 239 5408ft 74kts
11-Jan-19 19:15 34.006571 -117.327426 240 6080ft 74kts
11-Jan-19 19:16 33.996264 -117.351217 240 6601ft 86kts
11-Jan-19 19:17 33.984854 -117.377617 240 7097ft 90kts
11-Jan-19 19:18 33.974454 -117.401561 240 7535ft 85kts
11-Jan-19 19:19 33.964349 -117.424613 240 7980ft 81kts
11-Jan-19 19:20 33.954011 -117.448239 239 8457ft 79kts
11-Jan-19 19:21 33.943816 -117.471562 239 8934ft 78kts
11-Jan-19 19:22 33.931836 -117.499245 240 8971ft 104kts
11-Jan-19 19:23 33.912539 -117.523654 177 8956ft 117kts
11-Jan-19 19:24 33.886534 -117.503544 152 8965ft 125kts
11-Jan-19 19:25 33.858068 -117.479307 153 8972ft 125kts
11-Jan-19 19:26 33.829341 -117.455216 153 8979ft 125kts
11-Jan-19 19:27 33.800652 -117.431192 153 8986ft 126kts
11-Jan-19 19:28 33.771845 -117.407088 153 8994ft 126kts
11-Jan-19 19:29 33.742872 -117.382866 153 9003ft 127kts
11-Jan-19 19:30 33.713885 -117.358660 153 9011ft 127kts
11-Jan-19 19:31 33.684514 -117.334152 153 9013ft 127kts
11-Jan-19 19:32 33.655314 -117.309805 153 9014ft 127kts
11-Jan-19 19:33 33.625993 -117.285376 153 9014ft 127kts
11-Jan-19 19:34 33.596783 -117.261061 153 9014ft 127kts
11-Jan-19 19:35 33.567442 -117.236624 153 9013ft 128kts
11-Jan-19 19:36 33.538215 -117.212323 153 9006ft 128kts
11-Jan-19 19:37 33.508836 -117.187924 153 9007ft 128kts
11-Jan-19 19:38 33.479715 -117.163791 155 9008ft 127kts
11-Jan-19 19:39 33.446972 -117.154692 177 9009ft 120kts
11-Jan-19 19:40 33.413913 -117.147921 177 9010ft 120kts
11-Jan-19 19:41 33.383195 -117.141446 177 9010ft 120kts
11-Jan-19 19:42 33.354327 -117.135327 177 9010ft 120kts
11-Jan-19 19:43 33.321724 -117.125835 153 9012ft 127kts
11-Jan-19 19:44 33.293068 -117.100561 151 9010ft 128kts
11-Jan-19 19:45 33.264483 -117.075419 151 9011ft 128kts
11-Jan-19 19:46 33.234279 -117.053270 156 9012ft 126kts
11-Jan-19 19:47 33.203949 -117.031746 156 9013ft 126kts
11-Jan-19 19:48 33.173541 -117.010413 156 9014ft 126kts
11-Jan-19 19:49 33.143020 -116.989247 156 9015ft 126kts
11-Jan-19 19:50 33.112532 -116.968342 156 9015ft 126kts
11-Jan-19 19:51 33.081760 -116.947338 156 9016ft 127kts
11-Jan-19 19:52 33.050823 -116.926338 156 8820ft 132kts
11-Jan-19 19:53 33.017943 -116.904515 156 8318ft 136kts
11-Jan-19 19:54 32.984392 -116.882704 156 7817ft 138kts
11-Jan-19 19:55 32.950248 -116.860898 156 7314ft 139kts
11-Jan-19 19:56 32.913789 -116.848690 181 6812ft 137kts
11-Jan-19 19:57 32.875345 -116.846860 181 6314ft 139kts
11-Jan-19 19:58 32.836549 -116.846078 190 5807ft 136kts
11-Jan-19 19:59 32.799524 -116.853078 192 5307ft 135kts
11-Jan-19 20:00 32.762273 -116.860821 192 4805ft 136kts
11-Jan-19 20:01 32.724686 -116.869111 192 4299ft 136kts
11-Jan-19 20:02 32.688843 -116.879221 226 3982ft 123kts
11-Jan-19 20:03 32.676188 -116.915849 250 3989ft 124kts
11-Jan-19 20:04 32.677990 -116.956898 284 3727ft 116kts
11-Jan-19 20:05 32.685220 -116.989856 283 3488ft 102kts
11-Jan-19 20:06 32.693704 -117.025275 283 3007ft 114kts
11-Jan-19 20:07 32.701607 -117.057683 283 2554ft 107kts
11-Jan-19 20:08 32.709181 -117.088436 284 2033ft 91kts
11-Jan-19 20:09 32.715438 -117.116331 270 1590ft 91kts
11-Jan-19 20:10 32.723361 -117.144961 280 1040ft 97kts
11-Jan-19 20:11 32.729047 -117.170655 280 230ft 76kts
11-Jan-19 20:12 32.732989 -117.187227 288 18ft 17kts
11-Jan-19 20:13 32.734019 -117.188063 16 18ft 0kts
11-Jan-19 20:14 32.733750 -117.185708 107 18ft 14kts
11-Jan-19 20:15 32.732605 -117.180988 105 18ft 14kts
11-Jan-19 20:16 32.732421 -117.177937 141 18ft 0kts

Navigation Log

Ident Type
Flight plan parsing failed, navigation log unavailable